To NAV CANADA Home Page Login to a new session Search on AWWS site Feedback and Comments Disclaimer Vers la page française équivalente Tips FAQ What's new on the site To the Forecasts and Observations / NOTAM section To "File a Flight Plan" website Publications and other links Update of the User's profile FIC Telephone Numbers My Weather Data Folder Route Weather Data Regional Weather Data Local Weather Data To the Forecasts and Observations / NOTAM section
Request Generated 10/21/2016 at 18:23:45 UTC . Weather information available at that time is displayed.


PANGNIRTUNG/NU    (show WxCam)

METAR CYXP 211800Z 30010KT 15SM DRSN FEW020 BKN035 M05/M12 A2986 RMK
SC2SC5 SLP115=
METAR CYXP 211700Z 29012KT 15SM DRSN FEW020 BKN035 M05/M09 A2984 RMK
SC2SC4 SLP110=
METAR CYXP 211600Z 28011KT 15SM DRSN FEW020 BKN035 M05/M08 A2983 RMK
SC2SC4 SLP104=

TAF CYXP 211238Z 2113/2122 29010KT P6SM BKN020 TEMPO 2113/2116 SCT020
FM211600 29010KT P6SM FEW025
Your time UTC time
Weather data provided by Environment Canada and NAV CANADA